createdAt,value
2023-01-21T00:01:10.475Z,101532.44
2023-01-21T00:03:37.643Z,101526.66
2023-01-21T00:06:05.352Z,101524.28
2023-01-21T00:08:32.650Z,101518.44
2023-01-21T00:11:17.173Z,101519.53
2023-01-21T00:13:45.176Z,101517.31
2023-01-21T00:16:15.044Z,101513.03
2023-01-21T00:18:42.289Z,101516.78
2023-01-21T00:21:09.622Z,101511.78
2023-01-21T00:23:36.649Z,101516.28
2023-01-21T00:26:06.299Z,101514.63
2023-01-21T00:28:35.588Z,101510.38
2023-01-21T00:31:04.822Z,101513.44
2023-01-21T00:33:46.175Z,101507.34
2023-01-21T00:36:18.620Z,101505.75
2023-01-21T00:38:49.153Z,101499.59
2023-01-21T00:41:16.487Z,101501.44
2023-01-21T00:43:43.892Z,101506.84
2023-01-21T00:46:11.635Z,101512.00
2023-01-21T00:48:39.583Z,101503.28
2023-01-21T00:51:07.301Z,101505.00
2023-01-21T00:53:39.767Z,101515.66
2023-01-21T00:56:09.299Z,101514.59
2023-01-21T00:58:37.057Z,101519.03
2023-01-21T01:01:08.429Z,101512.00
2023-01-21T01:03:46.735Z,101516.63
2023-01-21T01:06:15.159Z,101517.66
2023-01-21T01:08:43.334Z,101514.44
2023-01-21T01:11:11.849Z,101512.72
2023-01-21T01:13:40.776Z,101508.53
2023-01-21T01:16:11.226Z,101513.06
2023-01-21T01:18:38.590Z,101516.69
2023-01-21T01:21:06.845Z,101513.28
2023-01-21T01:23:34.736Z,101514.22
2023-01-21T01:26:04.614Z,101524.94
2023-01-21T01:28:36.516Z,101529.38
2023-01-21T01:31:12.103Z,101530.50
2023-01-21T01:33:40.010Z,101531.31
2023-01-21T01:36:23.721Z,101534.09
2023-01-21T01:38:51.957Z,101545.34
2023-01-21T01:41:22.759Z,101544.50
2023-01-21T01:43:55.990Z,101548.03
2023-01-21T01:46:24.634Z,101538.34
2023-01-21T01:49:05.838Z,101536.59
2023-01-21T01:51:52.793Z,101540.28
2023-01-21T01:54:46.527Z,101541.31
2023-01-21T01:57:22.023Z,101538.78
2023-01-21T01:59:51.003Z,101546.03
2023-01-21T02:02:20.157Z,101541.66
2023-01-21T02:05:01.540Z,101535.84
2023-01-21T02:07:34.074Z,101541.25
2023-01-21T02:10:02.688Z,101542.22
2023-01-21T02:12:29.631Z,101545.94
2023-01-21T02:14:56.641Z,101540.69
2023-01-21T02:17:36.163Z,101534.56
2023-01-21T02:20:19.715Z,101539.94
2023-01-21T02:22:52.534Z,101533.84
2023-01-21T02:25:52.302Z,101535.09
2023-01-21T02:28:28.438Z,101534.16
2023-01-21T02:31:20.328Z,101539.50
2023-01-21T02:33:53.484Z,101531.66
2023-01-21T02:36:30.166Z,101533.47
2023-01-21T02:39:07.672Z,101540.78
2023-01-21T02:41:37.660Z,101540.03
2023-01-21T02:44:16.886Z,101532.25
2023-01-21T02:46:49.218Z,101539.47
2023-01-21T02:49:28.101Z,101535.16
2023-01-21T02:51:55.283Z,101528.22
2023-01-21T02:54:40.310Z,101531.91
2023-01-21T02:57:09.013Z,101533.09
2023-01-21T02:59:38.292Z,101526.06
2023-01-21T03:02:28.139Z,101528.75
2023-01-21T03:05:05.050Z,101517.53
2023-01-21T03:07:35.465Z,101523.66
2023-01-21T03:10:14.220Z,101519.47
2023-01-21T03:13:04.292Z,101505.56
2023-01-21T03:16:03.990Z,101503.84
2023-01-21T03:18:40.494Z,101502.28
2023-01-21T03:21:24.166Z,101514.75
2023-01-21T03:23:53.424Z,101513.13
2023-01-21T03:26:32.087Z,101515.19
2023-01-21T03:29:06.476Z,101518.81
2023-01-21T03:31:37.441Z,101518.81
2023-01-21T03:34:08.819Z,101524.97
2023-01-21T03:37:06.902Z,101527.78
2023-01-21T03:40:15.971Z,101522.53
2023-01-21T03:42:44.953Z,101523.53
2023-01-21T03:45:13.404Z,101533.34
2023-01-21T03:47:58.421Z,101522.81
2023-01-21T03:50:34.207Z,101528.34
2023-01-21T03:53:01.649Z,101528.44
2023-01-21T03:55:28.569Z,101526.78
2023-01-21T03:57:55.566Z,101521.63
2023-01-21T04:00:22.666Z,101523.38
2023-01-21T04:02:49.660Z,101533.03
2023-01-21T04:05:17.132Z,101526.16
2023-01-21T04:07:44.216Z,101527.88
2023-01-21T04:10:11.941Z,101521.78
2023-01-21T04:12:39.229Z,101521.78
2023-01-21T04:15:06.813Z,101518.25
2023-01-21T04:17:33.940Z,101515.63
2023-01-21T04:20:00.825Z,101513.00
2023-01-21T04:22:27.991Z,101507.72
2023-01-21T04:24:54.937Z,101512.97
2023-01-21T04:27:21.962Z,101517.34
2023-01-21T04:29:48.905Z,101522.53
2023-01-21T04:32:15.877Z,101511.06
2023-01-21T04:34:44.297Z,101507.59
2023-01-21T04:37:11.455Z,101512.88
2023-01-21T04:39:38.439Z,101514.63
2023-01-21T04:42:05.864Z,101513.72
2023-01-21T04:44:32.825Z,101506.72
2023-01-21T04:46:59.795Z,101514.53
2023-01-21T04:49:26.889Z,101510.91
2023-01-21T04:51:54.041Z,101509.16
2023-01-21T04:54:20.990Z,101508.34
2023-01-21T04:56:50.684Z,101512.72
2023-01-21T04:59:18.764Z,101510.97
2023-01-21T05:01:45.677Z,101510.06
2023-01-21T05:04:12.651Z,101495.38
2023-01-21T05:06:39.754Z,101507.72
2023-01-21T05:09:06.900Z,101500.81
2023-01-21T05:11:33.876Z,101497.34
2023-01-21T05:14:00.781Z,101499.25
2023-01-21T05:16:27.820Z,101494.84
2023-01-21T05:18:54.738Z,101492.28
2023-01-21T05:21:21.711Z,101483.53
2023-01-21T05:23:57.212Z,101488.91
2023-01-21T05:26:34.241Z,101492.44
2023-01-21T05:29:01.197Z,101484.56
2023-01-21T05:31:28.147Z,101488.97
2023-01-21T05:33:57.004Z,101482.00
2023-01-21T05:36:24.273Z,101483.81
2023-01-21T05:38:53.706Z,101475.00
2023-01-21T05:41:20.715Z,101469.75
2023-01-21T05:43:47.670Z,101474.16
2023-01-21T05:46:15.110Z,101471.53
2023-01-21T05:48:42.027Z,101469.03
2023-01-21T05:51:09.017Z,101476.16
2023-01-21T05:53:35.964Z,101471.09
2023-01-21T05:56:03.203Z,101475.53
2023-01-21T05:58:30.150Z,101475.53
2023-01-21T06:00:58.726Z,101472.16
2023-01-21T06:03:26.436Z,101477.44
2023-01-21T06:05:53.922Z,101493.22
2023-01-21T06:08:23.746Z,101496.66
2023-01-21T06:10:50.719Z,101493.13
2023-01-21T06:13:17.704Z,101504.50
2023-01-21T06:15:44.724Z,101503.56
2023-01-21T06:18:11.680Z,101498.31
2023-01-21T06:20:38.669Z,101500.13
2023-01-21T06:23:05.838Z,101493.13
2023-01-21T06:25:33.912Z,101505.47
2023-01-21T06:28:01.449Z,101506.34
2023-01-21T06:30:28.540Z,101501.13
2023-01-21T06:32:55.554Z,101501.19
2023-01-21T06:35:22.496Z,101502.19
2023-01-21T06:37:49.607Z,101493.38
2023-01-21T06:40:17.019Z,101494.28
2023-01-21T06:42:48.499Z,101502.28
2023-01-21T06:45:17.414Z,101506.72
2023-01-21T06:47:44.729Z,101502.34
2023-01-21T06:50:18.080Z,101498.91
2023-01-21T06:52:47.278Z,101503.34
2023-01-21T06:55:15.763Z,101489.31
2023-01-21T06:57:44.108Z,101516.50
2023-01-21T07:00:12.451Z,101491.91
2023-01-21T07:02:39.565Z,101515.50
2023-01-21T07:05:06.896Z,101513.75
2023-01-21T07:07:33.902Z,101491.75
2023-01-21T07:10:00.854Z,101515.38
2023-01-21T07:12:28.052Z,101497.75
2023-01-21T07:14:54.991Z,101489.66
2023-01-21T07:17:23.272Z,101493.84
2023-01-21T07:19:50.186Z,101490.97
2023-01-21T07:22:17.168Z,101503.91
2023-01-21T07:24:44.100Z,101485.69
2023-01-21T07:27:11.411Z,101486.56
2023-01-21T07:29:38.324Z,101497.31
2023-01-21T07:32:05.865Z,101489.16
2023-01-21T07:34:32.935Z,101478.94
2023-01-21T07:36:59.899Z,101470.44
2023-01-21T07:39:27.028Z,101471.66
2023-01-21T07:41:53.936Z,101479.84
2023-01-21T07:44:20.887Z,101472.41
2023-01-21T07:46:47.832Z,101462.78
2023-01-21T07:49:17.496Z,101466.78
2023-01-21T07:51:45.937Z,101461.16
2023-01-21T07:54:13.782Z,101458.44
2023-01-21T07:56:41.424Z,101469.28
2023-01-21T07:59:10.006Z,101461.34
2023-01-21T08:01:37.236Z,101455.38
2023-01-21T08:04:04.541Z,101453.53
2023-01-21T08:06:31.538Z,101447.69
2023-01-21T08:08:58.402Z,101440.59
2023-01-21T08:11:25.291Z,101430.31
2023-01-21T08:13:52.222Z,101441.50
2023-01-21T08:16:19.161Z,101437.78
2023-01-21T08:18:46.072Z,101430.41
2023-01-21T08:21:13.097Z,101431.84
2023-01-21T08:23:40.116Z,101429.25
2023-01-21T08:26:07.662Z,101426.44
2023-01-21T08:28:34.932Z,101428.66
2023-01-21T08:31:07.372Z,101428.50
2023-01-21T08:33:34.590Z,101418.88
2023-01-21T08:36:02.785Z,101420.13
2023-01-21T08:38:29.811Z,101425.03
2023-01-21T08:40:58.377Z,101429.19
2023-01-21T08:43:26.245Z,101425.44
2023-01-21T08:45:56.747Z,101424.22
2023-01-21T08:48:23.858Z,101426.69
2023-01-21T08:50:50.997Z,101427.88
2023-01-21T08:53:18.018Z,101427.75
2023-01-21T08:55:45.225Z,101429.34
2023-01-21T08:58:12.168Z,101432.66
2023-01-21T09:00:39.663Z,101437.63
2023-01-21T09:03:07.124Z,101439.03
2023-01-21T09:05:33.983Z,101445.13
2023-01-21T09:08:00.896Z,101445.19
2023-01-21T09:10:46.469Z,101442.09
2023-01-21T09:13:13.430Z,101438.81
2023-01-21T09:15:42.245Z,101437.00
2023-01-21T09:18:09.772Z,101436.41
2023-01-21T09:20:37.500Z,101436.56
2023-01-21T09:23:24.529Z,101429.72
2023-01-21T09:26:18.436Z,101429.09
2023-01-21T09:28:47.911Z,101430.53
2023-01-21T09:31:16.928Z,101417.66
2023-01-21T09:33:46.874Z,101438.53
2023-01-21T09:36:16.602Z,101434.91
2023-01-21T09:38:44.439Z,101433.06
2023-01-21T09:41:38.335Z,101425.53
2023-01-21T09:44:28.193Z,101425.28
2023-01-21T09:47:23.676Z,101414.09
2023-01-21T09:50:14.264Z,101421.59
2023-01-21T09:52:43.839Z,101408.63
2023-01-21T09:55:42.063Z,101400.41
2023-01-21T09:58:22.106Z,101412.44
2023-01-21T10:01:07.593Z,101399.28
2023-01-21T10:03:53.572Z,101412.00
2023-01-21T10:06:45.653Z,101408.66
2023-01-21T10:09:38.269Z,101409.44
2023-01-21T10:12:26.298Z,101417.19
2023-01-21T10:15:15.194Z,101417.88
2023-01-21T10:18:11.587Z,101416.72
2023-01-21T10:21:26.728Z,101430.88
2023-01-21T10:24:23.682Z,101438.13
2023-01-21T10:26:54.129Z,101429.25
2023-01-21T10:29:24.575Z,101427.13
2023-01-21T10:31:59.540Z,101421.88
2023-01-21T10:34:31.398Z,101431.44
2023-01-21T10:37:08.808Z,101426.06
2023-01-21T10:39:36.227Z,101432.78
2023-01-21T10:42:12.345Z,101431.09
2023-01-21T10:44:57.942Z,101435.66
2023-01-21T10:47:39.119Z,101440.13
